createdAt,value
2023-10-23T00:00:57.284Z,14.85
2023-10-23T00:05:59.627Z,14.87
2023-10-23T00:11:01.806Z,14.91
2023-10-23T00:16:04.152Z,14.80
2023-10-23T00:21:06.333Z,14.78
2023-10-23T00:26:09.124Z,14.88
2023-10-23T00:31:11.351Z,14.88
2023-10-23T00:36:13.486Z,14.82
2023-10-23T00:41:15.648Z,14.93
2023-10-23T00:46:21.711Z,15.03
2023-10-23T00:51:24.013Z,15.05
2023-10-23T00:56:27.319Z,14.93
2023-10-23T01:01:31.055Z,14.78
2023-10-23T01:06:33.397Z,14.58
2023-10-23T01:11:35.639Z,14.52
2023-10-23T01:16:37.923Z,14.38
2023-10-23T01:21:40.136Z,14.18
2023-10-23T01:26:42.325Z,14.11
2023-10-23T01:31:44.528Z,14.09
2023-10-23T01:36:46.815Z,14.00
2023-10-23T01:41:49.018Z,13.85
2023-10-23T01:46:51.205Z,13.90
2023-10-23T01:51:53.398Z,13.84
2023-10-23T01:56:55.675Z,13.64
2023-10-23T02:01:57.901Z,13.62
2023-10-23T02:07:00.040Z,13.52
2023-10-23T02:12:02.761Z,13.47
2023-10-23T02:17:05.289Z,13.35
2023-10-23T02:22:07.403Z,13.25
2023-10-23T02:27:09.509Z,13.27
2023-10-23T02:32:11.743Z,13.28
2023-10-23T02:37:13.989Z,13.28
2023-10-23T02:42:16.131Z,13.34
2023-10-23T02:47:18.302Z,13.28
2023-10-23T02:52:20.540Z,13.37
2023-10-23T02:57:22.916Z,13.36
2023-10-23T03:02:27.825Z,13.42
2023-10-23T03:07:30.032Z,13.38
2023-10-23T03:12:32.239Z,13.40
2023-10-23T03:17:34.493Z,13.33
2023-10-23T03:22:36.709Z,13.36
2023-10-23T03:27:38.969Z,13.37
2023-10-23T03:32:41.094Z,13.74
2023-10-23T03:37:43.286Z,13.74
2023-10-23T03:42:45.475Z,14.04
2023-10-23T03:47:47.902Z,13.78
2023-10-23T03:52:50.042Z,13.67
2023-10-23T03:57:52.538Z,13.68
2023-10-23T04:02:54.828Z,13.70
2023-10-23T04:07:57.192Z,13.60
2023-10-23T04:12:59.380Z,13.66
2023-10-23T04:18:01.625Z,13.61
2023-10-23T04:23:04.575Z,13.59
2023-10-23T04:28:06.720Z,13.73
2023-10-23T04:33:08.940Z,13.62
2023-10-23T04:38:11.116Z,13.70
2023-10-23T04:43:13.604Z,13.65
2023-10-23T04:48:15.737Z,13.68
2023-10-23T04:53:17.859Z,13.99
2023-10-23T04:58:20.150Z,13.87
2023-10-23T05:03:22.562Z,13.79
2023-10-23T05:08:24.787Z,13.86
2023-10-23T05:13:26.929Z,13.88
2023-10-23T05:18:29.075Z,14.04
2023-10-23T05:23:31.310Z,14.04
2023-10-23T05:28:33.522Z,14.04
2023-10-23T05:33:36.145Z,14.10
2023-10-23T05:38:39.280Z,14.14
2023-10-23T05:43:41.482Z,14.29
2023-10-23T05:48:43.664Z,14.37
2023-10-23T05:53:46.755Z,14.25
2023-10-23T05:58:49.994Z,14.01
2023-10-23T06:03:54.237Z,14.07
2023-10-23T06:08:56.543Z,13.98
2023-10-23T06:13:58.783Z,13.89
2023-10-23T06:19:01.167Z,14.07
2023-10-23T06:24:04.886Z,14.51
2023-10-23T06:29:07.091Z,14.51
2023-10-23T06:34:09.246Z,14.16
2023-10-23T06:39:13.863Z,14.37
2023-10-23T06:44:16.573Z,14.10
2023-10-23T06:49:18.700Z,14.31
2023-10-23T06:54:22.808Z,14.74
2023-10-23T06:59:25.184Z,14.83
2023-10-23T07:04:28.183Z,14.79
2023-10-23T07:09:32.284Z,14.88
2023-10-23T07:14:34.458Z,15.47
2023-10-23T07:19:36.726Z,15.98
2023-10-23T07:24:38.847Z,16.03
2023-10-23T07:29:41.156Z,16.28
2023-10-23T07:34:43.461Z,16.33
2023-10-23T07:39:49.229Z,16.69
2023-10-23T07:44:51.535Z,16.50
2023-10-23T07:49:53.701Z,16.08
2023-10-23T07:54:55.882Z,15.76
2023-10-23T07:59:58.050Z,15.78
2023-10-23T08:05:00.851Z,15.82
2023-10-23T08:10:03.768Z,15.89
2023-10-23T08:15:06.411Z,15.82
2023-10-23T08:20:09.163Z,15.88
2023-10-23T08:25:11.357Z,16.12
2023-10-23T08:30:14.000Z,16.40
2023-10-23T08:35:16.692Z,16.74
2023-10-23T08:40:19.100Z,16.85
2023-10-23T08:45:21.613Z,17.24
2023-10-23T08:50:24.737Z,17.71
2023-10-23T08:55:30.073Z,18.47
2023-10-23T09:00:32.278Z,25.88
2023-10-23T09:05:34.657Z,24.05
2023-10-23T09:10:59.859Z,26.71
2023-10-23T09:16:05.277Z,31.79
2023-10-23T09:21:08.342Z,31.58
2023-10-23T09:26:11.056Z,30.59
2023-10-23T09:31:14.409Z,29.72
2023-10-23T09:36:17.779Z,33.37
2023-10-23T09:41:19.936Z,34.32
2023-10-23T09:46:29.354Z,34.84
2023-10-23T09:51:40.055Z,38.11
2023-10-23T09:56:51.687Z,35.66
2023-10-23T10:01:58.826Z,33.68
2023-10-23T10:07:15.739Z,32.36
2023-10-23T10:12:19.857Z,33.75
2023-10-23T10:17:24.312Z,34.47
2023-10-23T10:22:31.145Z,35.36
2023-10-23T10:27:34.146Z,35.30
2023-10-23T10:34:21.213Z,32.43
2023-10-23T10:38:00.726Z,35.75
2023-10-23T10:43:07.243Z,34.12
2023-10-23T10:48:11.350Z,32.57
2023-10-23T10:53:15.658Z,34.10
2023-10-23T10:58:20.077Z,35.36
2023-10-23T11:03:22.369Z,36.02
2023-10-23T11:08:24.697Z,38.05
2023-10-23T11:13:27.053Z,36.85
2023-10-23T11:18:29.836Z,34.67
2023-10-23T11:23:32.346Z,35.35
2023-10-23T11:28:34.516Z,34.67
2023-10-23T11:33:37.237Z,34.85
2023-10-23T11:38:39.534Z,34.25
2023-10-23T11:43:41.760Z,32.33
2023-10-23T11:48:44.047Z,33.35
2023-10-23T11:53:47.579Z,35.73
2023-10-23T11:58:49.765Z,35.69
2023-10-23T12:03:52.530Z,34.19
2023-10-23T12:08:56.716Z,33.40
2023-10-23T12:14:02.252Z,32.62
2023-10-23T12:19:05.624Z,37.51
2023-10-23T12:24:08.441Z,34.78
2023-10-23T12:29:13.845Z,36.10
2023-10-23T12:34:18.010Z,35.48
2023-10-23T12:39:20.585Z,37.32
2023-10-23T12:44:22.838Z,36.64
2023-10-23T12:49:26.338Z,35.62
2023-10-23T12:54:28.598Z,38.02
2023-10-23T12:59:34.371Z,36.25
2023-10-23T13:04:36.940Z,35.95
2023-10-23T13:09:39.458Z,35.56
2023-10-23T13:14:41.753Z,36.21
2023-10-23T13:19:43.923Z,36.30
2023-10-23T13:24:46.119Z,35.07
2023-10-23T13:29:48.888Z,35.65
2023-10-23T13:34:50.989Z,34.87
2023-10-23T13:39:53.628Z,35.54
2023-10-23T13:44:55.928Z,35.97
2023-10-23T13:49:59.566Z,31.77
2023-10-23T13:55:02.035Z,31.97
2023-10-23T14:00:04.900Z,33.08
2023-10-23T14:05:07.975Z,31.93
2023-10-23T14:10:10.529Z,31.63
2023-10-23T14:15:12.724Z,31.26
2023-10-23T14:20:15.014Z,29.93
2023-10-23T14:25:17.308Z,26.88
2023-10-23T14:30:19.858Z,29.74
2023-10-23T14:35:21.984Z,30.11
2023-10-23T14:40:24.208Z,25.05
2023-10-23T14:45:26.476Z,26.26
2023-10-23T14:50:28.881Z,24.58
2023-10-23T14:55:31.088Z,23.97
2023-10-23T15:00:35.700Z,25.44
2023-10-23T15:05:37.984Z,24.19
2023-10-23T15:10:40.177Z,22.73
2023-10-23T15:15:42.673Z,22.07
2023-10-23T15:20:45.502Z,21.40
2023-10-23T15:25:49.449Z,20.89
2023-10-23T15:30:54.689Z,20.37
2023-10-23T15:35:58.560Z,19.83
2023-10-23T15:41:06.732Z,19.44
2023-10-23T15:46:16.868Z,19.15
2023-10-23T15:51:19.170Z,19.02
2023-10-23T15:56:21.526Z,19.01
2023-10-23T16:01:23.842Z,18.80
2023-10-23T16:06:26.099Z,18.63
2023-10-23T16:11:29.853Z,18.54
2023-10-23T16:16:35.134Z,18.30
2023-10-23T16:21:37.387Z,18.07
2023-10-23T16:26:39.563Z,18.03
2023-10-23T16:31:41.758Z,18.06
2023-10-23T16:36:43.923Z,18.08
2023-10-23T16:41:48.356Z,17.92
2023-10-23T16:46:53.829Z,17.88
2023-10-23T16:51:56.157Z,17.79
2023-10-23T16:56:58.399Z,17.78
2023-10-23T17:02:00.733Z,17.97
2023-10-23T17:07:04.413Z,17.86
2023-10-23T17:12:06.921Z,17.71
2023-10-23T17:17:10.025Z,17.44
2023-10-23T17:22:12.323Z,17.25
2023-10-23T17:27:14.498Z,17.17
2023-10-23T17:32:16.616Z,17.11
2023-10-23T17:37:18.806Z,16.86
2023-10-23T17:42:21.073Z,16.82
2023-10-23T17:47:25.210Z,16.93
2023-10-23T17:52:27.761Z,17.14
2023-10-23T17:57:30.809Z,17.09
2023-10-23T18:02:33.008Z,16.80
2023-10-23T18:07:35.300Z,16.21
2023-10-23T18:12:38.696Z,16.54
2023-10-23T18:17:41.402Z,18.11
2023-10-23T18:22:44.149Z,17.80
2023-10-23T18:27:46.502Z,17.69
2023-10-23T18:32:48.909Z,17.87
2023-10-23T18:37:51.316Z,17.94
2023-10-23T18:42:58.041Z,18.00
2023-10-23T18:48:03.485Z,18.17
2023-10-23T18:53:06.530Z,18.19
2023-10-23T18:58:11.496Z,17.98
2023-10-23T19:03:19.972Z,17.71
2023-10-23T19:08:23.508Z,17.51
2023-10-23T19:13:26.138Z,17.54
2023-10-23T19:18:31.001Z,17.62
2023-10-23T19:23:33.660Z,17.47
2023-10-23T19:28:36.732Z,17.19
2023-10-23T19:33:40.080Z,17.19
2023-10-23T19:38:43.497Z,16.92
2023-10-23T19:43:53.341Z,16.82
2023-10-23T19:48:55.871Z,16.97
2023-10-23T19:53:58.339Z,16.87
2023-10-23T19:59:00.942Z,16.77
2023-10-23T20:04:04.766Z,16.70
2023-10-23T20:09:06.998Z,16.72
2023-10-23T20:14:13.934Z,16.60
2023-10-23T20:19:16.527Z,17.02
2023-10-23T20:24:18.766Z,16.43
2023-10-23T20:29:21.018Z,16.12
2023-10-23T20:34:23.279Z,16.17
2023-10-23T20:39:26.086Z,16.26
2023-10-23T20:44:28.745Z,16.33
2023-10-23T20:49:31.127Z,16.43
2023-10-23T20:54:33.270Z,16.88
2023-10-23T20:59:35.361Z,17.14
2023-10-23T21:04:37.576Z,17.39
2023-10-23T21:09:40.238Z,17.39
2023-10-23T21:14:47.699Z,16.81
2023-10-23T21:19:50.048Z,16.65
2023-10-23T21:24:52.309Z,16.49
2023-10-23T21:29:54.923Z,16.97
2023-10-23T21:34:57.111Z,16.70
2023-10-23T21:39:59.275Z,17.29
2023-10-23T21:45:01.462Z,17.59
2023-10-23T21:50:04.111Z,17.52
2023-10-23T21:55:13.645Z,17.35
2023-10-23T22:00:30.792Z,16.69
2023-10-23T22:05:33.291Z,16.55
2023-10-23T22:10:35.920Z,16.56
2023-10-23T22:15:38.128Z,16.86
2023-10-23T22:20:40.272Z,16.81
2023-10-23T22:25:42.512Z,15.80
2023-10-23T22:30:44.665Z,16.48
2023-10-23T22:35:46.921Z,16.17
2023-10-23T22:40:49.870Z,16.14
2023-10-23T22:46:02.417Z,16.04
2023-10-23T22:51:06.483Z,16.11
2023-10-23T22:56:10.316Z,16.09
2023-10-23T23:01:12.769Z,16.04
2023-10-23T23:06:19.906Z,15.64
2023-10-23T23:11:22.440Z,15.58
2023-10-23T23:16:25.940Z,15.50
2023-10-23T23:21:30.833Z,15.32
2023-10-23T23:26:34.209Z,15.30
2023-10-23T23:31:36.471Z,15.22
2023-10-23T23:36:38.736Z,15.20
2023-10-23T23:41:40.823Z,15.19
2023-10-23T23:46:43.020Z,15.31
2023-10-23T23:51:45.219Z,15.31
2023-10-23T23:56:47.340Z,14.88
